(°C)
10°
12°
13°
(°C)
11°
S
S
S
S
SSZ
S
S
(km/h)
4-7
4-4
2-5
2-8
5-8
7-8
7-9
(mm)
0
0
0
0
0
0
0
(%)
0
0
0
0
0
0
0

Sun elevation

/ 5.4°
sun-icon
UV 4
06:12
20:29
Prva četvrt meseca (93°)
11:27
03:54

METAR for Bordenau (ETNW)

Vreme Conditions Temperatura/
Tačka rose
Vetar Vidljivost Prognoza Oblaci Pritisak Change Raw
LIFR 3°C / 3°C 360º 1kt 800m patches Fog Few Clouds 9000ft 1017 Temporary: Recent . ETNW 200440Z 36001KT 0800 BCFG FEW090 03/03 Q1017 AMB BLU+ TEMPO RED
LIFR 3°C / 3°C variable 0kt 310m Fog Few Clouds 9000ft 1017 Temporary: Recent . ETNW 200420Z 00000KT 0300 FG FEW090 03/03 Q1017 RED BLU+ TEMPO RED
4°C / 4°C 350º 1kt 900m - 1017 - ETNW 200320Z AUTO 35001KT 0900 // ////// 04/04 Q1017 ///
4°C / 4°C 310º 3kt 1100m - 1017 - ETNW 200220Z AUTO 31003KT 1100 // ////// 04/04 Q1017 ///
5°C / 5°C 300º 3kt 4200m - 1018 - ETNW 200120Z AUTO 30003KT 4200 // ////// 05/05 Q1018 ///
6°C / 6°C 310º 3kt 3400m - 1018 - ETNW 200020Z AUTO 31003KT 3400 // ////// 06/06 Q1018 ///
7°C / 7°C 290º 3kt 5000m - 1018 - ETNW 192320Z AUTO 29003KT 5000 // ////// 07/07 Q1018 ///
7°C / 7°C 270º 3kt 6000m - 1018 - ETNW 192220Z AUTO 27003KT 6000 // ////// 07/07 Q1018 ///
8°C / 7°C 230º 2kt 6000m - 1019 - ETNW 192120Z AUTO 23002KT 6000 // ////// 08/07 Q1019 ///
9°C / 8°C 260º 2kt 6000m - 1019 - ETNW 192020Z AUTO 26002KT 6000 // ////// 09/08 Q1019 ///
10°C / 7°C 290º 2kt 7000m - 1019 - ETNW 191920Z AUTO 29002KT 7000 // ////// 10/07 Q1019 ///
11°C / 7°C 320º 2kt 7000m - 1019 - ETNW 191820Z AUTO 32002KT 7000 // ////// 11/07 Q1019 ///
13°C / 7°C 300º 2kt 8000m - 1019 - ETNW 191720Z AUTO 30002KT 8000 // ////// 13/07 Q1019 ///
13°C / 7°C 60º 1kt 7000m - 1019 - ETNW 191620Z AUTO 06001KT 7000 // ////// 13/07 Q1019 ///
14°C / 7°C 320º 1kt 8000m - 1020 - ETNW 191520Z AUTO 32001KT 8000 // ////// 14/07 Q1020 ///
VFR 13°C / 6°C 70º 6kt >10km - Few Clouds 2000ft 1020 - ETNW 191420Z 07006KT 9999 FEW020 SCT050 BKN070 13/06 Q1020 BLU BLU
VFR 13°C / 7°C 70º 6kt >10km - Few Clouds 2000ft 1020 - ETNW 191320Z 07006KT 9999 FEW020 BKN070 13/07 Q1020 BLU BLU
VFR 12°C / 7°C 110º 5kt >10km - Scattered Clouds 800ft 1021 - ETNW 191220Z 11005KT 9999 SCT008 BKN110 12/07 Q1021 BLU BLU
IFR 10°C / 7°C 80º 4kt >10km - Broken Clouds 800ft 1021 Becoming: blowing . ETNW 191120Z 08004KT 9999 BKN008 BKN012 10/07 Q1021 GRN GRN BECMG BLU
IFR 9°C / 7°C 50º 6kt >10km - Broken Clouds 800ft 1021 Becoming: blowing . ETNW 191020Z 05006KT 9999 BKN008 09/07 Q1021 GRN GRN BECMG BLU
IFR 9°C / 7°C 70º 7kt >10km - Broken Clouds 700ft 1021 Temporary: YLO ETNW 190945Z 07007KT 9999 BKN007 09/07 Q1021 GRN GRN TEMPO YLO
IFR 8°C / 7°C 60º 6kt >10km - Broken Clouds 600ft 1021 Temporary: YLO ETNW 190920Z 06006KT 9999 BKN006 08/07 Q1021 YLO GRN TEMPO YLO
IFR 8°C / 7°C 80º 6kt >10km - Broken Clouds 800ft 1021 Becoming: WHT ETNW 190820Z 08006KT 9999 BKN008 08/07 Q1021 GRN GRN BECMG WHT
IFR 8°C / 7°C 80º 6kt 9000m - Broken Clouds 700ft 1021 Becoming: WHT ETNW 190720Z 08006KT 9000 BKN007 08/07 Q1021 GRN GRN BECMG WHT

LIFR

3°C / 3°C

[Više]
Vetar 360º 1kt
Vidljivost 800m
Prognoza patches Fog
Oblaci Few Clouds 9000ft
Pritisak 1017
Change Temporary: Recent .
Raw ETNW 200440Z 36001KT 0800 BCFG FEW090 03/03 Q1017 AMB BLU+ TEMPO RED

LIFR

3°C / 3°C

[Više]
Vetar variable 0kt
Vidljivost 310m
Prognoza Fog
Oblaci Few Clouds 9000ft
Pritisak 1017
Change Temporary: Recent .
Raw ETNW 200420Z 00000KT 0300 FG FEW090 03/03 Q1017 RED BLU+ TEMPO RED

4°C / 4°C

[Više]
Vetar 350º 1kt
Vidljivost 900m
Prognoza -
Oblaci
Pritisak 1017
Change -
Raw ETNW 200320Z AUTO 35001KT 0900 // ////// 04/04 Q1017 ///

4°C / 4°C

[Više]
Vetar 310º 3kt
Vidljivost 1100m
Prognoza -
Oblaci
Pritisak 1017
Change -
Raw ETNW 200220Z AUTO 31003KT 1100 // ////// 04/04 Q1017 ///

5°C / 5°C

[Više]
Vetar 300º 3kt
Vidljivost 4200m
Prognoza -
Oblaci
Pritisak 1018
Change -
Raw ETNW 200120Z AUTO 30003KT 4200 // ////// 05/05 Q1018 ///

6°C / 6°C

[Više]
Vetar 310º 3kt
Vidljivost 3400m
Prognoza -
Oblaci
Pritisak 1018
Change -
Raw ETNW 200020Z AUTO 31003KT 3400 // ////// 06/06 Q1018 ///

7°C / 7°C

[Više]
Vetar 290º 3kt
Vidljivost 5000m
Prognoza -
Oblaci
Pritisak 1018
Change -
Raw ETNW 192320Z AUTO 29003KT 5000 // ////// 07/07 Q1018 ///

7°C / 7°C

[Više]
Vetar 270º 3kt
Vidljivost 6000m
Prognoza -
Oblaci
Pritisak 1018
Change -
Raw ETNW 192220Z AUTO 27003KT 6000 // ////// 07/07 Q1018 ///

8°C / 7°C

[Više]
Vetar 230º 2kt
Vidljivost 6000m
Prognoza -
Oblaci
Pritisak 1019
Change -
Raw ETNW 192120Z AUTO 23002KT 6000 // ////// 08/07 Q1019 ///

9°C / 8°C

[Više]
Vetar 260º 2kt
Vidljivost 6000m
Prognoza -
Oblaci
Pritisak 1019
Change -
Raw ETNW 192020Z AUTO 26002KT 6000 // ////// 09/08 Q1019 ///

10°C / 7°C

[Više]
Vetar 290º 2kt
Vidljivost 7000m
Prognoza -
Oblaci
Pritisak 1019
Change -
Raw ETNW 191920Z AUTO 29002KT 7000 // ////// 10/07 Q1019 ///

11°C / 7°C

[Više]
Vetar 320º 2kt
Vidljivost 7000m
Prognoza -
Oblaci
Pritisak 1019
Change -
Raw ETNW 191820Z AUTO 32002KT 7000 // ////// 11/07 Q1019 ///

13°C / 7°C

[Više]
Vetar 300º 2kt
Vidljivost 8000m
Prognoza -
Oblaci
Pritisak 1019
Change -
Raw ETNW 191720Z AUTO 30002KT 8000 // ////// 13/07 Q1019 ///

13°C / 7°C

[Više]
Vetar 60º 1kt
Vidljivost 7000m
Prognoza -
Oblaci
Pritisak 1019
Change -
Raw ETNW 191620Z AUTO 06001KT 7000 // ////// 13/07 Q1019 ///

14°C / 7°C

[Više]
Vetar 320º 1kt
Vidljivost 8000m
Prognoza -
Oblaci
Pritisak 1020
Change -
Raw ETNW 191520Z AUTO 32001KT 8000 // ////// 14/07 Q1020 ///

VFR

13°C / 6°C

[Više]
Vetar 70º 6kt
Vidljivost >10km
Prognoza -
Oblaci Few Clouds 2000ft
Pritisak 1020
Change -
Raw ETNW 191420Z 07006KT 9999 FEW020 SCT050 BKN070 13/06 Q1020 BLU BLU

VFR

13°C / 7°C

[Više]
Vetar 70º 6kt
Vidljivost >10km
Prognoza -
Oblaci Few Clouds 2000ft
Pritisak 1020
Change -
Raw ETNW 191320Z 07006KT 9999 FEW020 BKN070 13/07 Q1020 BLU BLU

VFR

12°C / 7°C

[Više]
Vetar 110º 5kt
Vidljivost >10km
Prognoza -
Oblaci Scattered Clouds 800ft
Pritisak 1021
Change -
Raw ETNW 191220Z 11005KT 9999 SCT008 BKN110 12/07 Q1021 BLU BLU

IFR

10°C / 7°C

[Više]
Vetar 80º 4kt
Vidljivost >10km
Prognoza -
Oblaci Broken Clouds 800ft
Pritisak 1021
Change Becoming: blowing .
Raw ETNW 191120Z 08004KT 9999 BKN008 BKN012 10/07 Q1021 GRN GRN BECMG BLU

IFR

9°C / 7°C

[Više]
Vetar 50º 6kt
Vidljivost >10km
Prognoza -
Oblaci Broken Clouds 800ft
Pritisak 1021
Change Becoming: blowing .
Raw ETNW 191020Z 05006KT 9999 BKN008 09/07 Q1021 GRN GRN BECMG BLU

IFR

9°C / 7°C

[Više]
Vetar 70º 7kt
Vidljivost >10km
Prognoza -
Oblaci Broken Clouds 700ft
Pritisak 1021
Change Temporary: YLO
Raw ETNW 190945Z 07007KT 9999 BKN007 09/07 Q1021 GRN GRN TEMPO YLO

IFR

8°C / 7°C

[Više]
Vetar 60º 6kt
Vidljivost >10km
Prognoza -
Oblaci Broken Clouds 600ft
Pritisak 1021
Change Temporary: YLO
Raw ETNW 190920Z 06006KT 9999 BKN006 08/07 Q1021 YLO GRN TEMPO YLO

IFR

8°C / 7°C

[Više]
Vetar 80º 6kt
Vidljivost >10km
Prognoza -
Oblaci Broken Clouds 800ft
Pritisak 1021
Change Becoming: WHT
Raw ETNW 190820Z 08006KT 9999 BKN008 08/07 Q1021 GRN GRN BECMG WHT

IFR

8°C / 7°C

[Više]
Vetar 80º 6kt
Vidljivost 9000m
Prognoza -
Oblaci Broken Clouds 700ft
Pritisak 1021
Change Becoming: WHT
Raw ETNW 190720Z 08006KT 9000 BKN007 08/07 Q1021 GRN GRN BECMG WHT

TAF for Bordenau (ETNW)

From till


From till Wind 310º 5kt. Visibility 10km or more. Scattered Clouds 10000ft.
Temporarly from till Wind variable 3kt. Visibility 498.895m. Fog . Scattered Clouds 10000ft.
Temporarly from till Wind variable 3kt. Visibility 5000m. Mist . Scattered Clouds 6000ft.

Raw: TAF ETNW 200420Z 2005/2105 31005KT 9999 NSW SCT100 TEMPO 2005/2008 VRB03KT 0500 FG SCT100 TEMPO 2102/2105 VRB03KT 5000 BR SCT060 BY ETGL

Current satellite and rain images for Bordenau, Немачка

  • Padavine:
  • <1 mm
  • 1-2 mm
  • 2-5 mm
  • >5 mm

Marker lokacije postavljen je na Bordenau. [Više]

The real-time satellite image combines visible light during daytime with infrared radiation during nighttime. At night, the image is not dark as infrared radiation can detect temperature differences. Unfortunately, low clouds and fog are difficult to distinguish from ground temperatures and thus can be almost invisible during the night. Meteosat satellite images for Europe are updated in real-time every 5 minutes. GOES-16/GOES-17 (North & South America) and Himawari (Asia) images update every 10 minutes.

Padavine su procenjene na osnovu radara i satelita. U noćnim uslovima satelitske procene padavina su manje precizne od dnevnih. Narandžasti preseci obeležavaju mesta gde je munja otkrivena (preko Evropa).

Autorsko pravo 2021 EUMETSAT / meteoblue. Podaci za munje obezbeđeni od nowcast.

Radar za Bordenau

Marker lokacije postavljen je na Bordenau. Ova animacija prikazuje radar padavina za poslednji sat, kao i 2h prognozu. Moguće je da rominjanje i slab sneg ne budu vidljivi na ovom radaru. Intezitet padavina je predstavljen bojama koje varijaju od svetlo plave do jako ljubičaste.
Copyright 2021 Deutscher Wetterdienst / meteoblue.

Aktuelne vremenske prilike i upozorenja

EUMETNET – MeteoAlarm

pictomap

Izvor: DWD

Vreme kašnjenja između ove web stranice i www.meteoalarm.eu web stranice je moguće, za najnovije informacije o nivou upozorenja koja su izdata od strane Republičkog Hidrometeorološkog Zavoda molimo Vas da koristite www.meteoalarm.eu.